WetterOnline ( https://www.wetteronline.de )

Wetter aktuell Gerichtsmannsmühle

Aktuelles Wetter: Tholey (398m)

6-stündlich | Neueste Meldungen
Ortszeit Temperatur Wetter
Mi, 16.06. 14:00 27.9° C fast wolkenlos
Mi, 16.06. 8:00 19.6° C leicht bewölkt
Mi, 16.06. 2:00 20.0° C wolkig
Di, 15.06. 20:00 26.9° C wolkig
Di, 15.06. 14:00 25.7° C leicht bewölkt
Di, 15.06. 8:00 18.1° C leicht bewölkt
Di, 15.06. 2:00 19.8° C wolkig
Mo, 14.06. 20:00 24.8° C wolkenlos
Ortszeit Temperatur Wetter
Mi, 16.06. 17:00 29.0° C wolkenlos
Mi, 16.06. 16:50 29.0° C wolkenlos
Mi, 16.06. 16:40 29.1° C fast wolkenlos
Mi, 16.06. 16:30 28.9° C wolkig
Mi, 16.06. 16:20 28.9° C wolkig
Mi, 16.06. 16:10 28.9° C leicht bewölkt
Mi, 16.06. 16:00 29.2° C fast wolkenlos
Mi, 16.06. 15:30 28.9° C fast wolkenlos
Mi, 16.06. 15:00 28.7° C wolkenlos
Mi, 16.06. 14:30 28.3° C wolkenlos
Mi, 16.06. 14:00 27.9° C fast wolkenlos
Ortszeit Relative Feuchte Sichtweite
Mi, 16.06. 14:00 44% 50 km
Mi, 16.06. 8:00 74% 35 km
Mi, 16.06. 2:00 68% 45 km
Di, 15.06. 20:00 40% 50 km
Di, 15.06. 14:00 41% 50 km
Di, 15.06. 8:00 71% 45 km
Di, 15.06. 2:00 56% >70 km
Mo, 14.06. 20:00 44% 65 km
Ortszeit Relative Feuchte Sichtweite
Mi, 16.06. 17:00 36% 50 km
Mi, 16.06. 16:50 36% -
Mi, 16.06. 16:40 35% -
Mi, 16.06. 16:30 32% 60 km
Mi, 16.06. 16:20 32% -
Mi, 16.06. 16:10 33% -
Mi, 16.06. 16:00 38% 55 km
Mi, 16.06. 15:30 36% >70 km
Mi, 16.06. 15:00 38% 45 km
Mi, 16.06. 14:30 40% 50 km
Mi, 16.06. 14:00 44% 50 km
Ortszeit Niederschlagsmenge Niederschlagsart
Mi, 16.06. 14:00 0.0 l/m2 in 6 Std. -
Mi, 16.06. 8:00 0.0 l/m2 in 12 Std. -
Mi, 16.06. 2:00 0.0 l/m2 in 6 Std. -
Di, 15.06. 20:00 0.0 l/m2 in 12 Std. -
Di, 15.06. 14:00 0.0 l/m2 in 6 Std. -
Di, 15.06. 8:00 0.0 l/m2 in 12 Std. -
Di, 15.06. 2:00 0.0 l/m2 in 6 Std. -
Mo, 14.06. 20:00 0.0 l/m2 in 12 Std. -
Ortszeit Niederschlagsmenge Niederschlagsart
Mi, 16.06. 17:00 0.0 l/m2 in 1 Std. -
Mi, 16.06. 16:50 keine Meldung -
Mi, 16.06. 16:40 keine Meldung -
Mi, 16.06. 16:30 0.0 l/m2 in 1 Std. -
Mi, 16.06. 16:20 keine Meldung -
Mi, 16.06. 16:10 keine Meldung -
Mi, 16.06. 16:00 0.0 l/m2 in 1 Std. -
Mi, 16.06. 15:30 0.0 l/m2 in 1 Std. -
Mi, 16.06. 15:00 0.0 l/m2 in 1 Std. -
Mi, 16.06. 14:30 0.0 l/m2 in 1 Std. -
Mi, 16.06. 14:00 0.0 l/m2 in 1 Std. -
Ortszeit Stärke Spitze Richtung
km/h Bft. km/h Grad Sektor
Mi, 16.06. 14:00 9 2 22 90° O
Mi, 16.06. 8:00 13 3 24 60° NO
Mi, 16.06. 2:00 17 3 24 40° NO
Di, 15.06. 20:00 4 1 14 210° SW
Di, 15.06. 14:00 11 2 22 130° SO
Di, 15.06. 8:00 0 0 11 - -
Di, 15.06. 2:00 7 2 14 30° NO
Mo, 14.06. 20:00 7 2 18 120° SO
Ortszeit Stärke Spitze Richtung
km/h Bft. km/h Grad Sektor
Mi, 16.06. 17:00 9 2 17 210° SW
Mi, 16.06. 16:50 9 2 - 210° SW
Mi, 16.06. 16:40 7 2 - 190° S
Mi, 16.06. 16:30 7 2 18 240° SW
Mi, 16.06. 16:20 7 2 - 240° SW
Mi, 16.06. 16:10 7 2 - 250° W
Mi, 16.06. 16:00 11 2 22 210° SW
Mi, 16.06. 15:30 9 2 20 220° SW
Mi, 16.06. 15:00 11 2 43 160° S
Mi, 16.06. 14:30 15 3 43 140° SO
Mi, 16.06. 14:00 9 2 20 90° O
Ortszeit Untergrenze Bedeckung Gattung
total tief tief mittel hoch
Mi, 16.06. 14:00 10500 m 2/8 0/8 - - -
Mi, 16.06. 8:00 10500 m 8/8 0/8 - - -
Mi, 16.06. 2:00 9000 m 8/8 0/8 - - -
Di, 15.06. 20:00 9000 m 8/8 0/8 - - -
Di, 15.06. 14:00 10500 m 3/8 0/8 - - -
Di, 15.06. 8:00 9000 m 7/8 0/8 - - -
Di, 15.06. 2:00 10500 m 7/8 0/8 - - -
Mo, 14.06. 20:00 - 0/8 0/8 - - -
Ortszeit Bedeckungsgrad in Achtel und Wolkenuntergrenze
Mi, 16.06. 17:00 keine Wolken
Mi, 16.06. 16:50 keine Wolken
Mi, 16.06. 16:40 2(10500m)
Mi, 16.06. 16:30 7(10500m)
Mi, 16.06. 16:20 7(10500m)
Mi, 16.06. 16:10 6(10500m)
Mi, 16.06. 16:00 1(10500m)
Mi, 16.06. 15:30 1(10500m)
Mi, 16.06. 15:00 keine Wolken
Mi, 16.06. 14:30 keine Wolken
Mi, 16.06. 14:00 2(10500m)
Ortszeit Luftdruck NN (hPa) Tendenz (hPa in 3 Std.)
Mi, 16.06. 14:00 1012 - 0,9
Mi, 16.06. 8:00 1015 - 0,3
Mi, 16.06. 2:00 1017 - 0,6
Di, 15.06. 20:00 1016 - 0,8
Di, 15.06. 14:00 1018 - 0,3
Di, 15.06. 8:00 1019 + 0,6
Di, 15.06. 2:00 1019 - 0,1
Mo, 14.06. 20:00 1017 - 0,8
Ortszeit Luftdruck NN (hPa) Tendenz (hPa in 3 Std.)
Mi, 16.06. 17:00 1012 - 0,7
Mi, 16.06. 16:50 1012 keine Meldung
Mi, 16.06. 16:40 1012 keine Meldung
Mi, 16.06. 16:30 1012 - 1,2
Mi, 16.06. 16:20 1012 keine Meldung
Mi, 16.06. 16:10 1012 keine Meldung
Mi, 16.06. 16:00 1012 - 1,2
Mi, 16.06. 15:30 1012 - 1,1
Mi, 16.06. 15:00 1012 - 1,1
Mi, 16.06. 14:30 1012 - 1,0
Mi, 16.06. 14:00 1012 - 0,9
Ortszeit Schneehöhe (cm)
Mi, 16.06. 14:00 -
Mi, 16.06. 8:00 -
Mi, 16.06. 2:00 -
Di, 15.06. 20:00 -
Di, 15.06. 14:00 -
Di, 15.06. 8:00 -
Di, 15.06. 2:00 -
Mo, 14.06. 20:00 -
Ortszeit Schneehöhe (cm)
Mi, 16.06. 17:00 -
Mi, 16.06. 16:50 -
Mi, 16.06. 16:40 -
Mi, 16.06. 16:30 -
Mi, 16.06. 16:20 -
Mi, 16.06. 16:10 -
Mi, 16.06. 16:00 -
Mi, 16.06. 15:30 -
Mi, 16.06. 15:00 -
Mi, 16.06. 14:30 -
Mi, 16.06. 14:00 -
Link zu dieser Seite / Seite empfehlen

Das Wetter in ...